Time;durP1;ratioP1;P1;durP2;ratioP2;P2;SDS_P1;SDS_P2;PMS_P1;PMS_P2;Temp;Humidity;BMP_temperature;BMP_pressure;BME280_temperature;BME280_humidity;BME280_pressure;Samples;Min_cycle;Max_cycle;Signal;HPM_P1;HPM_P2
2022/01/28 00:04:47;;;;;;;1.90;1.40;;;5.50;99.90;;;;;;5036228;28;20776;-69
2022/01/28 00:07:13;;;;;;;5.30;1.83;;;5.50;99.90;;;;;;5042299;28;20461;-70
2022/01/28 00:09:39;;;;;;;1.17;1.07;;;5.50;99.90;;;;;;5055163;28;20875;-70
2022/01/28 00:12:07;;;;;;;1.37;0.80;;;5.50;99.90;;;;;;5055258;28;20413;-70
2022/01/28 00:15:03;;;;;;;3.33;1.13;;;5.50;99.90;;;;;;5054806;28;20182;-70
2022/01/28 00:36:24;;;;;;;0.70;0.70;;;5.60;99.90;;;;;;5052588;28;20451;-70
2022/01/28 00:39:45;;;;;;;2.53;1.20;;;5.60;99.90;;;;;;5054097;28;20397;-68
2022/01/28 00:42:10;;;;;;;1.83;1.07;;;5.60;99.90;;;;;;5054140;28;20401;-68
2022/01/28 00:44:36;;;;;;;0.77;0.77;;;5.60;99.90;;;;;;5053214;28;20408;-69
2022/01/28 00:47:02;;;;;;;1.17;0.97;;;5.60;99.90;;;;;;5053910;28;20183;-69
2022/01/28 00:49:28;;;;;;;6.00;0.90;;;5.60;99.90;;;;;;5054512;28;20232;-68
2022/01/28 00:51:53;;;;;;;2.20;1.23;;;5.60;99.90;;;;;;5054384;28;20922;-69
2022/01/28 00:54:19;;;;;;;2.30;1.57;;;5.60;99.90;;;;;;5053975;28;20163;-70
2022/01/28 00:56:46;;;;;;;9.20;2.53;;;5.60;99.90;;;;;;5053717;28;20285;-68
2022/01/28 00:59:11;;;;;;;2.57;1.23;;;5.50;99.90;;;;;;5053840;28;20183;-69
2022/01/28 01:01:38;;;;;;;0.80;0.80;;;5.50;99.90;;;;;;5053427;28;20397;-69
2022/01/28 01:04:04;;;;;;;0.90;0.90;;;5.50;99.90;;;;;;5053692;28;20256;-68
2022/01/28 01:06:30;;;;;;;3.63;1.57;;;5.50;99.90;;;;;;5053541;28;20401;-69
2022/01/28 01:08:56;;;;;;;5.00;1.73;;;5.50;99.90;;;;;;5053332;28;20449;-69
2022/01/28 01:11:23;;;;;;;1.17;1.07;;;5.50;99.90;;;;;;5053838;28;20405;-69
2022/01/28 01:13:50;;;;;;;1.53;1.20;;;5.50;99.90;;;;;;5053765;28;20436;-69
2022/01/28 01:16:22;;;;;;;1.93;1.60;;;5.50;99.90;;;;;;5054195;28;20505;-69
2022/01/28 01:19:35;;;;;;;1.43;1.07;;;5.50;99.90;;;;;;5053283;28;20406;-68
2022/01/28 01:21:40;;;;;;;0.77;0.77;;;5.50;99.90;;;;;;5052795;28;20448;-69
2022/01/28 01:24:08;;;;;;;2.70;1.00;;;5.50;99.90;;;;;;5053648;28;20413;-69
2022/01/28 01:26:37;;;;;;;1.40;1.30;;;5.50;99.90;;;;;;5053181;28;20405;-69
2022/01/28 01:29:09;;;;;;;8.13;2.10;;;5.50;99.90;;;;;;5052994;28;20457;-68
2022/01/28 01:31:39;;;;;;;4.00;1.20;;;5.50;99.90;;;;;;5053127;28;20412;-68
2022/01/28 01:34:12;;;;;;;9.23;1.23;;;5.50;99.90;;;;;;5053145;28;20417;-68
2022/01/28 01:36:38;;;;;;;1.37;1.10;;;5.50;99.90;;;;;;5053085;28;20393;-68
2022/01/28 01:39:07;;;;;;;3.90;1.80;;;5.50;99.90;;;;;;5052918;28;20949;-68
2022/01/28 01:41:41;;;;;;;1.30;1.20;;;5.50;99.90;;;;;;5053146;28;20417;-68
2022/01/28 01:44:26;;;;;;;3.43;1.27;;;5.50;99.90;;;;;;5052921;28;20424;-68
2022/01/28 01:52:45;;;;;;;2.17;1.10;;;5.50;99.90;;;;;;5052828;28;20415;-68
2022/01/28 01:55:11;;;;;;;6.40;1.63;;;5.50;99.90;;;;;;5052698;28;20772;-68
2022/01/28 01:57:38;;;;;;;1.20;1.10;;;5.50;99.90;;;;;;5052783;28;20338;-69
2022/01/28 02:00:07;;;;;;;1.80;1.10;;;5.40;99.90;;;;;;5052662;28;20175;-69
2022/01/28 02:02:33;;;;;;;0.97;0.80;;;5.40;99.90;;;;;;5052467;28;20455;-67
2022/01/28 02:04:59;;;;;;;3.30;1.13;;;5.40;99.90;;;;;;5050956;28;20406;-68
2022/01/28 02:07:26;;;;;;;2.30;1.03;;;5.40;99.90;;;;;;5052516;28;20211;-68
2022/01/28 02:09:51;;;;;;;2.30;1.50;;;5.40;99.90;;;;;;5052347;28;20163;-67
2022/01/28 02:12:17;;;;;;;3.17;2.70;;;5.40;99.90;;;;;;5051549;28;20416;-68
2022/01/28 02:14:42;;;;;;;2.87;2.13;;;5.40;99.90;;;;;;5052350;28;20171;-68
2022/01/28 02:17:08;;;;;;;2.60;1.23;;;5.40;99.90;;;;;;5052292;28;20214;-69
2022/01/28 02:19:35;;;;;;;1.27;1.17;;;5.40;99.90;;;;;;5052327;28;20577;-68
2022/01/28 02:22:01;;;;;;;2.97;1.50;;;5.40;99.90;;;;;;5052325;28;20418;-69
2022/01/28 02:24:32;;;;;;;2.00;1.30;;;5.40;99.90;;;;;;5052342;28;20393;-67
2022/01/28 02:26:58;;;;;;;6.00;1.27;;;5.30;99.90;;;;;;5051873;28;20198;-67
2022/01/28 02:29:32;;;;;;;2.47;1.50;;;5.40;99.90;;;;;;5052275;28;20783;-67
2022/01/28 02:32:00;;;;;;;0.80;0.80;;;5.40;99.90;;;;;;5052348;28;20560;-68
2022/01/28 02:34:26;;;;;;;1.73;1.63;;;5.40;99.90;;;;;;5052294;28;20900;-69
2022/01/28 02:36:51;;;;;;;2.93;1.30;;;5.40;99.90;;;;;;5052013;28;20436;-68
2022/01/28 02:39:17;;;;;;;3.23;1.47;;;5.40;99.90;;;;;;5051941;28;20174;-68
2022/01/28 02:41:46;;;;;;;3.60;3.40;;;5.40;99.90;;;;;;5051801;28;20556;-67
2022/01/28 02:46:53;;;;;;;4.40;1.50;;;5.30;99.90;;;;;;5052090;28;20512;-69
2022/01/28 02:49:19;;;;;;;2.43;2.30;;;5.30;99.90;;;;;;5051647;28;20453;-68
2022/01/28 02:51:44;;;;;;;1.47;1.10;;;5.30;99.90;;;;;;5051633;28;20409;-68
2022/01/28 02:54:17;;;;;;;3.00;1.70;;;5.30;99.90;;;;;;5051629;28;20417;-68
2022/01/28 02:56:49;;;;;;;8.43;1.43;;;5.30;99.90;;;;;;5051789;28;20543;-68
2022/01/28 02:59:15;;;;;;;2.93;1.53;;;5.30;99.90;;;;;;5051696;28;20417;-68
2022/01/28 03:01:41;;;;;;;2.20;1.00;;;5.20;99.90;;;;;;5051546;28;20915;-68
2022/01/28 03:04:07;;;;;;;3.53;1.10;;;5.10;99.90;;;;;;5051618;28;20437;-69
2022/01/28 03:06:33;;;;;;;4.07;1.40;;;5.10;99.90;;;;;;5051394;28;20158;-68
2022/01/28 03:09:04;;;;;;;1.27;1.20;;;5.10;99.90;;;;;;5051353;28;20544;-68
2022/01/28 03:16:53;;;;;;;1.57;1.03;;;5.10;99.90;;;;;;5051389;28;20409;-67
2022/01/28 03:19:21;;;;;;;2.80;1.37;;;5.20;99.90;;;;;;5051191;28;20429;-68
2022/01/28 03:21:56;;;;;;;2.53;1.00;;;5.20;99.90;;;;;;5051646;28;20413;-68
2022/01/28 03:24:26;;;;;;;5.90;1.27;;;5.20;99.90;;;;;;5051485;28;20474;-68
2022/01/28 03:26:59;;;;;;;2.20;1.43;;;5.20;99.90;;;;;;5051310;28;20433;-68
2022/01/28 03:29:24;;;;;;;15.33;1.43;;;5.20;99.90;;;;;;5051091;28;20464;-70
2022/01/28 03:31:50;;;;;;;1.47;1.10;;;5.20;99.90;;;;;;5050958;28;20414;-68
2022/01/28 03:34:15;;;;;;;1.10;0.90;;;5.20;99.90;;;;;;5051188;28;20171;-68
2022/01/28 03:36:41;;;;;;;1.90;1.00;;;5.20;99.90;;;;;;5050953;28;20187;-68
2022/01/28 03:39:08;;;;;;;5.70;1.00;;;5.20;99.90;;;;;;5051073;28;20206;-68
2022/01/28 03:41:34;;;;;;;1.00;1.00;;;5.20;99.90;;;;;;5051123;28;20178;-68
2022/01/28 03:44:00;;;;;;;1.77;1.17;;;5.20;99.90;;;;;;5050944;28;20397;-68
2022/01/28 03:46:27;;;;;;;1.87;1.47;;;5.20;99.90;;;;;;5051099;28;20705;-68
2022/01/28 03:48:54;;;;;;;2.00;1.67;;;5.30;99.90;;;;;;5051448;28;20457;-68
2022/01/28 03:51:19;;;;;;;3.43;1.43;;;5.30;99.90;;;;;;5051393;28;20436;-68
2022/01/28 03:53:45;;;;;;;9.93;1.00;;;5.30;99.90;;;;;;5051073;28;20394;-68
2022/01/28 03:56:10;;;;;;;14.33;1.57;;;5.30;99.90;;;;;;5050904;28;20203;-68
2022/01/28 03:58:36;;;;;;;4.73;1.10;;;5.30;99.90;;;;;;5050830;28;20225;-68
2022/01/28 04:01:04;;;;;;;3.70;2.60;;;5.30;99.90;;;;;;5050642;28;20767;-68
2022/01/28 04:11:29;;;;;;;2.00;1.80;;;5.30;99.90;;;;;;5050827;28;20424;-67
2022/01/28 04:13:58;;;;;;;6.70;1.90;;;5.30;99.90;;;;;;5050910;28;20462;-68
2022/01/28 04:17:19;;;;;;;4.53;1.63;;;5.30;99.90;;;;;;5050665;28;20772;-68
2022/01/28 04:19:19;;;;;;;4.83;1.60;;;5.30;99.90;;;;;;5050595;28;20421;-70
2022/01/28 04:21:45;;;;;;;3.80;1.30;;;5.30;99.90;;;;;;5050641;28;20417;-68
2022/01/28 04:24:10;;;;;;;1.70;1.00;;;5.30;99.90;;;;;;5050727;28;20413;-68
2022/01/28 04:26:36;;;;;;;1.27;1.17;;;5.30;99.90;;;;;;5050632;28;20171;-68
2022/01/28 04:29:01;;;;;;;1.20;1.10;;;5.30;99.90;;;;;;5050565;28;20657;-68
2022/01/28 04:31:27;;;;;;;1.87;0.93;;;5.30;99.90;;;;;;5050695;28;20174;-67
2022/01/28 04:33:54;;;;;;;1.00;0.80;;;5.30;99.90;;;;;;5050764;28;20178;-68
2022/01/28 04:36:21;;;;;;;2.03;1.93;;;5.30;99.90;;;;;;5053763;28;20171;-67
2022/01/28 04:39:17;;;;;;;5.47;1.17;;;5.30;99.90;;;;;;5054812;28;20414;-68
2022/01/28 04:42:27;;;;;;;1.43;1.20;;;5.40;99.90;;;;;;5054911;28;20424;-68
2022/01/28 04:44:25;;;;;;;2.83;1.37;;;5.40;99.90;;;;;;5053955;28;20421;-68
2022/01/28 04:47:01;;;;;;;1.03;0.83;;;5.40;99.90;;;;;;5055016;28;20445;-69
2022/01/28 04:49:41;;;;;;;2.10;0.80;;;5.40;99.90;;;;;;5054860;28;20812;-69
2022/01/28 04:52:36;;;;;;;4.30;2.17;;;5.40;99.90;;;;;;5055426;28;20758;-68
2022/01/28 04:55:12;;;;;;;2.57;1.03;;;5.40;99.90;;;;;;5055747;28;20418;-68
2022/01/28 04:57:56;;;;;;;6.10;1.47;;;5.40;99.90;;;;;;5054999;28;20861;-68
2022/01/28 05:06:03;;;;;;;1.50;1.40;;;5.40;99.90;;;;;;5052599;28;20179;-68
2022/01/28 05:14:22;;;;;;;2.40;0.80;;;5.40;99.90;;;;;;5053342;28;20470;-68
2022/01/28 05:25:21;;;;;;;4.33;1.73;;;5.40;99.90;;;;;;5053490;28;20419;-68
2022/01/28 05:27:43;;;;;;;2.00;0.93;;;5.50;99.90;;;;;;5052967;28;20987;-68
2022/01/28 05:30:09;;;;;;;7.50;1.33;;;5.40;99.90;;;;;;5053276;28;20401;-68
2022/01/28 05:32:34;;;;;;;4.50;2.50;;;5.40;99.90;;;;;;5053171;28;20908;-68
2022/01/28 05:34:59;;;;;;;6.90;1.10;;;5.40;99.90;;;;;;5053886;28;20412;-68
2022/01/28 05:37:25;;;;;;;3.33;1.07;;;5.50;99.90;;;;;;5053287;28;20526;-68
2022/01/28 05:39:50;;;;;;;3.47;0.80;;;5.40;99.90;;;;;;5053766;28;20262;-68
2022/01/28 05:42:16;;;;;;;6.10;1.83;;;5.50;99.90;;;;;;5052938;28;20175;-68
2022/01/28 05:44:41;;;;;;;2.10;0.90;;;5.40;99.90;;;;;;5051977;28;20171;-68
2022/01/28 05:47:07;;;;;;;7.20;1.30;;;5.40;99.90;;;;;;5052797;28;20203;-69
2022/01/28 05:49:32;;;;;;;2.50;1.00;;;5.40;99.90;;;;;;5052754;28;20224;-68
2022/01/28 05:51:58;;;;;;;7.50;1.97;;;5.40;99.90;;;;;;5053135;28;20579;-67
2022/01/28 05:54:24;;;;;;;0.83;0.83;;;5.50;99.90;;;;;;5052927;28;20692;-68
2022/01/28 05:56:50;;;;;;;5.20;2.17;;;5.40;99.90;;;;;;5052678;28;20471;-68
2022/01/28 05:59:16;;;;;;;3.50;1.00;;;5.40;99.90;;;;;;5052614;28;20546;-68
2022/01/28 06:01:42;;;;;;;1.87;1.03;;;5.40;99.90;;;;;;5052530;28;20409;-68
2022/01/28 06:04:07;;;;;;;1.63;1.33;;;5.40;99.90;;;;;;5052763;28;20409;-68
2022/01/28 06:06:33;;;;;;;1.27;1.17;;;5.40;99.90;;;;;;5052435;28;20179;-68
2022/01/28 06:08:59;;;;;;;1.70;1.60;;;5.40;99.90;;;;;;5052379;28;20195;-68
2022/01/28 06:11:24;;;;;;;1.20;0.93;;;5.40;99.90;;;;;;5052472;28;20170;-68
2022/01/28 06:13:51;;;;;;;4.37;1.23;;;5.40;99.90;;;;;;5052706;28;20174;-72
2022/01/28 06:16:17;;;;;;;4.20;2.30;;;5.40;99.90;;;;;;5052500;28;20159;-69
2022/01/28 06:18:43;;;;;;;2.73;1.47;;;5.40;99.90;;;;;;5052160;28;20427;-69
2022/01/28 06:21:09;;;;;;;9.07;1.20;;;5.40;99.90;;;;;;5052330;28;20401;-68
2022/01/28 06:23:35;;;;;;;1.90;0.80;;;5.40;99.90;;;;;;5052117;28;20424;-67
2022/01/28 06:26:02;;;;;;;8.73;1.10;;;5.40;99.90;;;;;;5052270;28;20914;-69
2022/01/28 06:28:28;;;;;;;3.63;1.83;;;5.40;99.90;;;;;;5051962;28;21063;-68
2022/01/28 06:30:54;;;;;;;8.50;2.10;;;5.40;99.90;;;;;;5052069;28;20497;-68
2022/01/28 06:33:20;;;;;;;0.73;0.73;;;5.40;99.90;;;;;;5052417;28;20600;-69
2022/01/28 06:35:46;;;;;;;3.70;1.80;;;5.40;99.90;;;;;;5052512;28;20410;-69
2022/01/28 06:38:13;;;;;;;3.77;1.40;;;5.40;99.90;;;;;;5052535;28;20205;-68
2022/01/28 06:40:39;;;;;;;1.80;1.47;;;5.40;99.90;;;;;;5051753;28;20413;-68
2022/01/28 06:43:08;;;;;;;1.53;1.03;;;5.40;99.90;;;;;;5052157;28;20954;-68
2022/01/28 06:45:34;;;;;;;1.90;1.30;;;5.40;99.90;;;;;;5051719;28;20559;-68
2022/01/28 06:47:59;;;;;;;1.30;1.20;;;5.40;99.90;;;;;;5051489;28;20540;-68
2022/01/28 06:50:25;;;;;;;1.10;1.00;;;5.40;99.90;;;;;;5051807;28;20155;-68
2022/01/28 06:52:50;;;;;;;1.73;1.40;;;5.30;99.90;;;;;;5051648;28;20673;-68
2022/01/28 06:55:16;;;;;;;1.20;1.03;;;5.40;99.90;;;;;;5051730;28;20186;-68
2022/01/28 06:57:42;;;;;;;3.90;1.90;;;5.40;99.90;;;;;;5051132;28;20198;-68
2022/01/28 07:00:09;;;;;;;1.20;1.10;;;5.40;99.90;;;;;;5051940;28;20178;-68
2022/01/28 07:02:35;;;;;;;3.80;1.47;;;5.30;99.90;;;;;;5045684;28;20422;-69
2022/01/28 07:05:00;;;;;;;4.57;1.70;;;5.40;99.90;;;;;;5040369;28;20513;-69
2022/01/28 07:07:27;;;;;;;1.27;1.17;;;5.30;99.90;;;;;;5036011;28;20203;-69
2022/01/28 07:09:53;;;;;;;3.07;1.37;;;5.30;99.90;;;;;;5031524;28;20527;-69
2022/01/28 07:12:19;;;;;;;4.90;1.57;;;5.30;99.90;;;;;;5031349;28;20425;-69
2022/01/28 07:14:45;;;;;;;6.07;1.03;;;5.30;99.90;;;;;;5031366;28;20889;-68
2022/01/28 07:17:10;;;;;;;0.97;0.97;;;5.20;99.90;;;;;;5031599;28;20429;-69
2022/01/28 07:19:37;;;;;;;2.90;1.20;;;5.20;99.90;;;;;;5031450;28;20410;-67
2022/01/28 07:22:02;;;;;;;1.83;1.30;;;5.20;99.90;;;;;;5031711;28;20182;-69
2022/01/28 07:24:28;;;;;;;3.20;1.73;;;5.20;99.90;;;;;;5036623;28;20492;-69
2022/01/28 07:26:54;;;;;;;4.27;1.47;;;5.20;99.90;;;;;;5039246;23;20231;-73
2022/01/28 07:29:20;;;;;;;6.00;2.43;;;5.10;99.90;;;;;;5006316;28;20474;-73
2022/01/28 07:31:46;;;;;;;4.17;1.60;;;5.10;99.90;;;;;;5011891;28;20175;-75
2022/01/28 07:34:11;;;;;;;5.90;2.30;;;5.00;99.90;;;;;;5012008;28;20403;-75
2022/01/28 07:36:39;;;;;;;2.87;1.27;;;5.00;99.90;;;;;;5012089;28;20913;-74
2022/01/28 07:39:07;;;;;;;6.60;1.50;;;4.90;99.90;;;;;;5010518;28;20199;-74
2022/01/28 07:41:34;;;;;;;3.03;1.53;;;4.90;99.90;;;;;;5011802;28;20443;-75
2022/01/28 07:44:00;;;;;;;2.33;1.30;;;4.90;99.90;;;;;;5011744;28;20423;-74
2022/01/28 07:46:26;;;;;;;4.60;1.30;;;4.90;99.90;;;;;;5011530;28;20431;-73
2022/01/28 07:48:51;;;;;;;1.93;1.07;;;4.90;99.90;;;;;;5008800;28;20744;-74
2022/01/28 07:51:17;;;;;;;4.97;1.70;;;4.90;99.90;;;;;;5011637;28;20943;-75
2022/01/28 07:53:43;;;;;;;0.90;0.90;;;4.80;99.90;;;;;;5011934;28;20168;-74
2022/01/28 07:56:08;;;;;;;2.63;1.70;;;4.80;99.90;;;;;;5011385;28;20627;-74
2022/01/28 07:58:34;;;;;;;3.70;1.90;;;4.70;99.90;;;;;;5011620;28;20569;-75
2022/01/28 08:00:59;;;;;;;3.03;1.33;;;4.70;99.90;;;;;;5011545;28;20172;-76
2022/01/28 08:03:25;;;;;;;1.73;1.30;;;4.70;99.90;;;;;;5011869;28;20492;-73
2022/01/28 08:05:50;;;;;;;2.93;1.70;;;4.70;99.90;;;;;;5011433;28;20176;-75
2022/01/28 08:08:19;;;;;;;1.80;1.70;;;4.70;99.90;;;;;;5011515;28;20181;-76
2022/01/28 08:10:46;;;;;;;3.83;3.07;;;4.70;99.90;;;;;;5013370;28;20164;-76
2022/01/28 08:13:12;;;;;;;1.50;1.33;;;4.70;99.90;;;;;;5015212;28;20402;-76
2022/01/28 08:15:39;;;;;;;1.77;1.10;;;4.80;99.90;;;;;;5015539;28;20407;-74
2022/01/28 08:18:05;;;;;;;4.73;2.30;;;5.00;99.90;;;;;;5015342;28;20187;-75
2022/01/28 08:20:31;;;;;;;3.43;1.43;;;5.00;99.90;;;;;;5015030;28;20407;-75
2022/01/28 08:22:57;;;;;;;5.60;1.23;;;4.90;99.90;;;;;;5015085;28;20172;-75
2022/01/28 08:25:24;;;;;;;9.30;1.83;;;5.10;99.90;;;;;;5013888;28;20590;-76
2022/01/28 08:27:51;;;;;;;1.20;1.10;;;5.30;99.90;;;;;;5014928;28;20466;-75
2022/01/28 08:30:18;;;;;;;3.03;1.73;;;5.40;99.90;;;;;;5015023;28;20410;-75
2022/01/28 08:32:44;;;;;;;1.13;1.03;;;5.20;99.90;;;;;;5014900;28;21104;-75
2022/01/28 08:35:11;;;;;;;4.20;2.30;;;5.20;99.90;;;;;;5014934;28;20407;-76
2022/01/28 08:37:37;;;;;;;3.60;1.87;;;5.30;99.90;;;;;;5012740;28;20854;-76
2022/01/28 08:40:04;;;;;;;3.57;1.80;;;5.50;99.90;;;;;;5011841;28;20506;-74
2022/01/28 08:42:30;;;;;;;1.23;0.90;;;5.60;99.90;;;;;;5014760;28;20171;-75
2022/01/28 08:44:55;;;;;;;3.67;1.80;;;5.80;99.90;;;;;;5014646;28;20744;-76
2022/01/28 08:47:21;;;;;;;3.17;1.17;;;5.30;99.90;;;;;;5014533;28;20267;-75
2022/01/28 08:49:47;;;;;;;1.80;1.43;;;5.20;99.90;;;;;;5015569;28;20389;-74
2022/01/28 08:52:13;;;;;;;3.70;2.17;;;5.30;99.90;;;;;;5015521;28;20169;-75
2022/01/28 08:54:41;;;;;;;3.17;1.13;;;5.30;99.90;;;;;;5022984;28;20588;-75
2022/01/28 08:57:07;;;;;;;1.57;1.37;;;5.40;99.90;;;;;;5021867;28;20960;-74
2022/01/28 08:59:33;;;;;;;2.00;1.03;;;5.50;99.90;;;;;;5017011;28;20423;-74
2022/01/28 09:01:58;;;;;;;5.87;1.10;;;5.60;99.90;;;;;;4998215;28;20428;-75
2022/01/28 09:04:24;;;;;;;3.07;2.33;;;5.50;99.90;;;;;;4996582;28;20651;-73
2022/01/28 09:06:50;;;;;;;4.63;2.30;;;5.70;99.90;;;;;;4996493;28;20280;-74
2022/01/28 09:09:18;;;;;;;1.93;1.73;;;5.60;99.90;;;;;;4996640;28;20191;-74
2022/01/28 09:11:47;;;;;;;1.80;1.47;;;5.90;99.90;;;;;;5011580;28;20176;-74
2022/01/28 09:14:14;;;;;;;1.20;1.10;;;5.80;99.90;;;;;;5016745;28;20487;-74
2022/01/28 09:16:40;;;;;;;2.17;1.27;;;5.80;99.90;;;;;;5016344;28;20431;-75
2022/01/28 09:19:06;;;;;;;3.30;1.40;;;5.80;99.90;;;;;;5016691;28;20924;-74
2022/01/28 09:21:32;;;;;;;2.27;1.33;;;5.80;99.90;;;;;;5015616;28;20461;-73
2022/01/28 09:23:58;;;;;;;3.43;1.37;;;5.60;99.90;;;;;;5017313;28;20863;-73
2022/01/28 09:26:23;;;;;;;1.93;1.47;;;5.40;99.90;;;;;;5018506;28;20216;-73
2022/01/28 09:28:49;;;;;;;4.10;1.50;;;5.70;99.90;;;;;;5018809;28;20736;-74
2022/01/28 09:31:14;;;;;;;4.97;1.37;;;5.60;99.90;;;;;;5018409;28;20236;-73
2022/01/28 09:33:40;;;;;;;1.53;1.00;;;5.60;99.90;;;;;;5019661;28;20706;-74
2022/01/28 09:36:07;;;;;;;4.10;1.60;;;5.60;99.90;;;;;;5028373;28;20195;-73
2022/01/28 09:38:34;;;;;;;3.67;2.00;;;5.60;99.90;;;;;;5022358;28;20172;-74
2022/01/28 09:41:03;;;;;;;6.27;1.73;;;5.60;99.90;;;;;;5021933;28;20459;-74
2022/01/28 09:43:28;;;;;;;1.00;0.90;;;5.80;99.90;;;;;;5018500;28;20419;-74
2022/01/28 09:45:54;;;;;;;1.87;1.30;;;5.50;99.90;;;;;;5018778;28;20411;-74
2022/01/28 09:48:20;;;;;;;4.13;2.50;;;5.50;99.90;;;;;;5016961;28;20262;-73
2022/01/28 09:50:46;;;;;;;1.33;0.93;;;5.50;99.90;;;;;;5014847;28;20226;-73
2022/01/28 09:53:13;;;;;;;3.80;1.13;;;5.50;99.90;;;;;;5015041;28;20434;-74
2022/01/28 09:55:39;;;;;;;2.90;1.43;;;5.60;99.90;;;;;;5018178;28;20846;-74
2022/01/28 09:58:05;;;;;;;5.47;2.10;;;5.70;99.90;;;;;;5033020;28;20922;-74
2022/01/28 10:00:32;;;;;;;2.30;2.10;;;5.70;99.90;;;;;;5015241;28;20501;-75
2022/01/28 10:03:08;;;;;;;7.73;1.50;;;5.90;99.90;;;;;;5021197;28;20418;-74
2022/01/28 10:05:41;;;;;;;5.03;2.43;;;6.10;99.90;;;;;;5034642;28;20406;-74
2022/01/28 10:08:13;;;;;;;11.77;1.43;;;6.20;99.90;;;;;;5034319;28;20660;-75
2022/01/28 10:10:51;;;;;;;2.03;1.10;;;5.90;99.90;;;;;;5044719;28;20402;-75
2022/01/28 10:13:36;;;;;;;3.90;1.13;;;6.00;99.90;;;;;;4999806;28;20446;-74
2022/01/28 10:16:20;;;;;;;3.57;1.20;;;6.00;99.90;;;;;;5011583;28;20427;-75
2022/01/28 10:18:53;;;;;;;3.10;1.90;;;5.90;99.90;;;;;;5012801;28;20454;-74
2022/01/28 10:21:26;;;;;;;5.80;2.10;;;6.00;99.90;;;;;;5012873;28;20910;-75
2022/01/28 10:24:13;;;;;;;1.43;1.33;;;5.90;99.90;;;;;;5012659;28;20832;-73
2022/01/28 10:27:11;;;;;;;3.43;1.30;;;5.90;99.90;;;;;;5012631;28;20464;-72
2022/01/28 10:29:37;;;;;;;2.77;1.40;;;6.00;99.90;;;;;;4979190;28;20474;-74
2022/01/28 10:32:06;;;;;;;2.40;1.20;;;5.90;99.90;;;;;;5012538;28;20514;-73
2022/01/28 10:34:31;;;;;;;3.97;1.03;;;6.00;99.90;;;;;;5012610;28;20761;-74
2022/01/28 10:37:18;;;;;;;1.73;1.30;;;6.00;99.90;;;;;;5012693;28;20514;-74
2022/01/28 10:39:43;;;;;;;1.87;1.70;;;6.10;99.90;;;;;;5012612;28;20168;-74
2022/01/28 10:42:10;;;;;;;5.23;1.47;;;5.90;99.90;;;;;;5012710;28;20497;-75
2022/01/28 10:44:52;;;;;;;2.53;2.20;;;5.90;99.90;;;;;;5012713;28;20543;-75
2022/01/28 10:47:29;;;;;;;1.40;1.23;;;5.80;99.90;;;;;;5012516;28;20435;-75
2022/01/28 10:49:55;;;;;;;6.63;1.80;;;5.70;99.90;;;;;;5012232;28;20423;-74
2022/01/28 10:52:30;;;;;;;3.43;1.23;;;5.60;99.90;;;;;;5012234;28;20462;-74
2022/01/28 10:54:56;;;;;;;5.27;2.40;;;5.60;99.90;;;;;;5011035;28;20179;-74
2022/01/28 10:57:22;;;;;;;7.13;1.50;;;5.70;99.90;;;;;;5012177;28;20423;-73
2022/01/28 10:59:48;;;;;;;6.47;2.37;;;5.90;99.90;;;;;;5012260;28;20399;-74
2022/01/28 11:02:13;;;;;;;2.00;1.50;;;5.80;99.90;;;;;;5012395;28;20163;-74
2022/01/28 11:04:42;;;;;;;3.00;2.63;;;5.80;99.90;;;;;;5012143;28;20407;-74
2022/01/28 11:07:07;;;;;;;1.90;1.17;;;5.80;99.90;;;;;;5012027;28;20204;-74
2022/01/28 11:09:33;;;;;;;3.13;1.17;;;5.80;99.90;;;;;;5012030;28;20463;-74
2022/01/28 11:12:00;;;;;;;5.80;1.20;;;5.80;99.90;;;;;;5012113;28;20479;-74
2022/01/28 11:14:26;;;;;;;3.10;1.30;;;5.80;99.90;;;;;;5012249;28;20164;-74
2022/01/28 11:16:52;;;;;;;1.87;1.77;;;5.80;99.90;;;;;;5012127;28;20438;-74
2022/01/28 11:19:20;;;;;;;3.53;1.23;;;5.80;99.90;;;;;;5012073;28;20411;-74
2022/01/28 11:22:03;;;;;;;1.57;1.30;;;5.90;99.90;;;;;;5012213;28;20407;-74
2022/01/28 11:24:47;;;;;;;3.60;2.13;;;6.00;99.90;;;;;;5011180;28;20411;-74
2022/01/28 11:27:34;;;;;;;2.30;1.17;;;6.20;99.90;;;;;;5012076;28;20454;-74
2022/01/28 11:30:22;;;;;;;7.33;1.17;;;6.30;99.90;;;;;;5011961;28;20498;-73
2022/01/28 11:32:52;;;;;;;1.53;0.80;;;6.30;99.90;;;;;;5012139;28;20881;-73
2022/01/28 11:35:20;;;;;;;2.37;1.30;;;6.30;99.90;;;;;;5011771;28;20403;-72
2022/01/28 11:37:45;;;;;;;1.10;1.00;;;6.30;99.90;;;;;;5010725;28;20468;-74
2022/01/28 11:40:14;;;;;;;1.20;1.10;;;6.40;99.90;;;;;;5011830;28;20879;-74
2022/01/28 11:42:39;;;;;;;1.20;0.93;;;6.40;99.90;;;;;;5012114;28;20643;-75
2022/01/28 11:45:07;;;;;;;5.53;2.83;;;6.40;99.90;;;;;;5014667;28;20474;-73
2022/01/28 11:47:39;;;;;;;3.30;1.40;;;6.30;99.90;;;;;;5015466;28;20192;-74
2022/01/28 11:50:13;;;;;;;1.73;1.20;;;6.50;99.90;;;;;;5015977;28;20779;-74
2022/01/28 11:52:43;;;;;;;3.27;0.87;;;6.50;99.90;;;;;;5015811;28;20770;-75
2022/01/28 11:55:16;;;;;;;0.97;0.90;;;6.50;99.90;;;;;;5015781;28;20414;-73
2022/01/28 11:58:12;;;;;;;4.10;1.83;;;6.60;99.90;;;;;;5016273;28;20914;-74
2022/01/28 12:00:41;;;;;;;3.03;1.33;;;6.60;99.90;;;;;;5015466;28;20407;-74
2022/01/28 12:03:17;;;;;;;3.33;0.97;;;6.70;99.90;;;;;;5015647;28;20422;-74
2022/01/28 12:05:54;;;;;;;3.27;2.00;;;6.70;99.90;;;;;;5015859;28;20492;-74
2022/01/28 12:08:20;;;;;;;1.67;1.57;;;6.60;99.90;;;;;;5015848;28;20445;-75
2022/01/28 12:10:49;;;;;;;2.60;1.53;;;6.50;99.90;;;;;;5015709;28;20403;-74
2022/01/28 12:13:17;;;;;;;4.30;2.43;;;6.60;99.90;;;;;;5015625;28;20169;-73
2022/01/28 12:15:59;;;;;;;3.37;1.33;;;6.50;99.90;;;;;;5015388;28;20395;-74
2022/01/28 12:18:25;;;;;;;2.97;1.77;;;6.60;99.90;;;;;;5015659;28;20407;-74
2022/01/28 12:20:52;;;;;;;4.13;3.73;;;6.80;99.90;;;;;;5015445;28;20415;-75
2022/01/28 12:23:18;;;;;;;11.90;1.20;;;7.00;99.90;;;;;;5014340;28;20455;-75
2022/01/28 12:25:43;;;;;;;12.70;2.10;;;7.10;99.90;;;;;;5015680;28;20432;-75
2022/01/28 12:28:19;;;;;;;1.83;1.10;;;6.90;99.90;;;;;;5014241;28;20211;-74
2022/01/28 12:30:49;;;;;;;2.20;1.20;;;6.80;99.90;;;;;;5015449;28;20183;-75
2022/01/28 12:33:20;;;;;;;0.80;0.80;;;6.90;99.90;;;;;;5014214;28;20435;-75
2022/01/28 12:35:49;;;;;;;1.20;1.10;;;7.00;99.90;;;;;;5015571;28;20486;-75
2022/01/28 12:38:15;;;;;;;6.40;1.50;;;7.00;99.90;;;;;;5015327;28;20403;-74
2022/01/28 12:40:48;;;;;;;2.20;1.23;;;6.90;99.90;;;;;;5015036;28;20413;-75
2022/01/28 12:43:17;;;;;;;1.50;1.40;;;6.90;99.90;;;;;;5013748;28;20169;-74
2022/01/28 12:45:57;;;;;;;4.70;1.40;;;7.00;99.90;;;;;;5014968;28;20453;-74
2022/01/28 12:48:22;;;;;;;1.20;1.10;;;6.90;99.90;;;;;;5014763;28;20463;-74
2022/01/28 12:50:52;;;;;;;2.00;1.27;;;6.70;99.90;;;;;;5014487;28;20822;-75
2022/01/28 12:53:40;;;;;;;2.80;1.10;;;6.60;99.90;;;;;;5014774;28;20251;-75
2022/01/28 12:56:07;;;;;;;2.67;1.27;;;6.70;99.90;;;;;;5013741;28;20944;-74
2022/01/28 12:58:40;;;;;;;3.33;1.20;;;6.60;99.90;;;;;;5014559;28;20470;-74
2022/01/28 13:01:11;;;;;;;1.37;1.27;;;6.80;99.90;;;;;;5014782;28;21018;-74
2022/01/28 13:03:46;;;;;;;1.23;1.10;;;6.80;99.90;;;;;;5014465;28;20482;-73
2022/01/28 13:06:28;;;;;;;2.17;2.07;;;6.70;99.90;;;;;;5013244;28;20474;-74
2022/01/28 13:08:55;;;;;;;2.07;1.97;;;6.60;99.90;;;;;;5014180;28;20984;-74
2022/01/28 13:11:23;;;;;;;2.20;1.10;;;6.60;99.90;;;;;;5014399;28;20410;-73
2022/01/28 13:13:57;;;;;;;2.70;1.30;;;6.70;99.90;;;;;;5014406;28;20443;-74
2022/01/28 13:16:49;;;;;;;2.50;1.00;;;6.70;99.90;;;;;;5015220;28;20423;-75
2022/01/28 13:19:16;;;;;;;0.80;0.80;;;6.60;99.90;;;;;;5012279;28;20419;-74
2022/01/28 13:21:43;;;;;;;1.30;1.20;;;6.60;99.90;;;;;;5014152;28;20494;-74
2022/01/28 13:24:22;;;;;;;2.07;1.67;;;6.60;99.90;;;;;;5014524;28;20416;-74
2022/01/28 13:27:02;;;;;;;1.03;1.03;;;6.60;99.90;;;;;;5036455;23;20491;-70
2022/01/28 13:29:38;;;;;;;3.37;1.40;;;6.60;99.90;;;;;;5013358;28;20453;-69
2022/01/28 13:32:32;;;;;;;5.10;1.90;;;6.60;99.90;;;;;;5013618;28;20406;-70
2022/01/28 13:34:59;;;;;;;1.20;1.10;;;6.60;99.90;;;;;;5011013;28;20465;-70
2022/01/28 13:37:39;;;;;;;12.27;1.67;;;6.60;99.90;;;;;;5013394;28;20788;-68
2022/01/28 13:40:18;;;;;;;0.80;0.80;;;6.60;99.90;;;;;;5013288;28;20877;-69
2022/01/28 13:42:59;;;;;;;2.33;1.10;;;6.60;99.90;;;;;;5013714;28;20878;-69
2022/01/28 13:45:48;;;;;;;1.67;0.90;;;6.60;99.90;;;;;;5013406;28;20411;-70
2022/01/28 13:48:19;;;;;;;0.67;0.67;;;6.60;99.90;;;;;;5012927;28;20866;-68
2022/01/28 13:50:52;;;;;;;4.43;1.33;;;6.60;99.90;;;;;;5013178;28;20796;-68
2022/01/28 13:55:53;;;;;;;1.90;1.23;;;6.70;99.90;;;;;;5014048;28;20415;-70
2022/01/28 13:58:20;;;;;;;2.33;1.03;;;6.70;99.90;;;;;;5013630;28;20814;-70
2022/01/28 14:00:47;;;;;;;1.27;1.00;;;6.60;99.90;;;;;;5013770;28;20952;-68
2022/01/28 14:03:18;;;;;;;2.47;1.17;;;6.60;99.90;;;;;;5012098;28;20982;-70
2022/01/28 14:05:57;;;;;;;4.97;1.63;;;6.70;99.90;;;;;;5014133;28;20408;-68
2022/01/28 14:08:43;;;;;;;1.13;0.93;;;6.60;99.90;;;;;;5012997;28;20473;-69
2022/01/28 14:11:31;;;;;;;1.27;1.17;;;6.60;99.90;;;;;;5014018;28;20443;-70
2022/01/28 14:14:19;;;;;;;0.87;0.77;;;6.60;99.90;;;;;;5013489;28;20402;-70
2022/01/28 14:16:48;;;;;;;1.33;1.07;;;6.60;99.90;;;;;;5013937;28;20502;-69